sensor_id;sensor_type;location;lat;lon;timestamp;pressure;altitude;pressure_sealevel;temperature;humidity
48517;BME280;34310;51.904;4.256;2023-01-26T00:01:34;102578.88;;;14.92;56.02
48517;BME280;34310;51.904;4.256;2023-01-26T00:04:01;102577.84;;;14.90;56.12
48517;BME280;34310;51.904;4.256;2023-01-26T00:06:29;102578.66;;;14.89;56.10
48517;BME280;34310;51.904;4.256;2023-01-26T00:08:56;102575.13;;;14.88;56.06
48517;BME280;34310;51.904;4.256;2023-01-26T00:11:25;102578.53;;;14.87;55.93
48517;BME280;34310;51.904;4.256;2023-01-26T00:13:54;102579.31;;;14.86;56.02
48517;BME280;34310;51.904;4.256;2023-01-26T00:16:21;102580.75;;;14.83;55.99
48517;BME280;34310;51.904;4.256;2023-01-26T00:18:49;102583.22;;;14.81;55.81
48517;BME280;34310;51.904;4.256;2023-01-26T00:23:55;102575.19;;;14.78;55.90
48517;BME280;34310;51.904;4.256;2023-01-26T00:26:25;102578.44;;;14.76;55.74
48517;BME280;34310;51.904;4.256;2023-01-26T00:28:53;102585.19;;;14.74;55.91
48517;BME280;34310;51.904;4.256;2023-01-26T00:31:25;102578.69;;;14.69;55.91
48517;BME280;34310;51.904;4.256;2023-01-26T00:33:54;102578.34;;;14.64;55.88
48517;BME280;34310;51.904;4.256;2023-01-26T00:36:21;102571.19;;;14.62;55.92
48517;BME280;34310;51.904;4.256;2023-01-26T00:38:49;102567.31;;;14.56;55.94
48517;BME280;34310;51.904;4.256;2023-01-26T00:41:16;102572.25;;;14.53;56.11
48517;BME280;34310;51.904;4.256;2023-01-26T00:44:02;102566.94;;;14.52;56.00
48517;BME280;34310;51.904;4.256;2023-01-26T00:46:29;102573.16;;;14.54;56.10
48517;BME280;34310;51.904;4.256;2023-01-26T00:48:57;102560.31;;;14.55;56.19
48517;BME280;34310;51.904;4.256;2023-01-26T00:51:26;102560.44;;;14.57;56.25
48517;BME280;34310;51.904;4.256;2023-01-26T00:53:54;102561.34;;;14.57;56.35
48517;BME280;34310;51.904;4.256;2023-01-26T00:56:21;102555.47;;;14.60;56.47
48517;BME280;34310;51.904;4.256;2023-01-26T00:58:49;102548.03;;;14.65;56.57
48517;BME280;34310;51.904;4.256;2023-01-26T01:01:16;102545.03;;;14.70;56.48
48517;BME280;34310;51.904;4.256;2023-01-26T01:03:43;102550.88;;;14.78;56.64
48517;BME280;34310;51.904;4.256;2023-01-26T01:06:10;102548.63;;;14.82;56.37
48517;BME280;34310;51.904;4.256;2023-01-26T01:08:38;102538.38;;;14.84;56.38
48517;BME280;34310;51.904;4.256;2023-01-26T01:11:08;102544.72;;;14.87;56.24
48517;BME280;34310;51.904;4.256;2023-01-26T01:13:36;102542.34;;;14.91;56.20
48517;BME280;34310;51.904;4.256;2023-01-26T01:16:12;102544.16;;;14.92;56.26
48517;BME280;34310;51.904;4.256;2023-01-26T01:18:40;102541.81;;;14.95;56.25
48517;BME280;34310;51.904;4.256;2023-01-26T01:21:09;102541.03;;;14.96;56.31
48517;BME280;34310;51.904;4.256;2023-01-26T01:23:37;102541.16;;;14.97;56.13
48517;BME280;34310;51.904;4.256;2023-01-26T01:26:05;102542.19;;;14.99;56.13
48517;BME280;34310;51.904;4.256;2023-01-26T01:28:33;102541.25;;;14.99;56.22
48517;BME280;34310;51.904;4.256;2023-01-26T01:31:06;102538.78;;;15.00;56.24
48517;BME280;34310;51.904;4.256;2023-01-26T01:33:34;102540.59;;;15.01;56.11
48517;BME280;34310;51.904;4.256;2023-01-26T01:36:04;102542.28;;;15.01;56.12
48517;BME280;34310;51.904;4.256;2023-01-26T01:38:32;102543.19;;;15.01;56.13
48517;BME280;34310;51.904;4.256;2023-01-26T01:41:00;102544.09;;;15.02;56.02
48517;BME280;34310;51.904;4.256;2023-01-26T01:43:28;102545.00;;;15.02;56.07
48517;BME280;34310;51.904;4.256;2023-01-26T01:45:55;102538.00;;;15.01;56.07
48517;BME280;34310;51.904;4.256;2023-01-26T01:51:26;102547.50;;;15.01;56.07
48517;BME280;34310;51.904;4.256;2023-01-26T01:53:58;102535.28;;;15.00;56.02
48517;BME280;34310;51.904;4.256;2023-01-26T01:56:29;102537.88;;;15.00;56.02
48517;BME280;34310;51.904;4.256;2023-01-26T01:58:59;102548.28;;;15.00;56.01
48517;BME280;34310;51.904;4.256;2023-01-26T02:01:27;102535.94;;;14.97;56.00
48517;BME280;34310;51.904;4.256;2023-01-26T02:03:59;102534.13;;;14.96;55.99
48517;BME280;34310;51.904;4.256;2023-01-26T02:06:46;102532.19;;;14.94;55.92
48517;BME280;34310;51.904;4.256;2023-01-26T02:09:16;102537.41;;;14.94;55.98
48517;BME280;34310;51.904;4.256;2023-01-26T02:12:09;102544.28;;;14.93;56.04
48517;BME280;34310;51.904;4.256;2023-01-26T02:14:40;102540.66;;;14.91;55.96
48517;BME280;34310;51.904;4.256;2023-01-26T02:17:08;102531.84;;;14.89;56.03
48517;BME280;34310;51.904;4.256;2023-01-26T02:20:03;102529.91;;;14.86;55.98
48517;BME280;34310;51.904;4.256;2023-01-26T02:28:03;102526.81;;;14.80;55.73
48517;BME280;34310;51.904;4.256;2023-01-26T02:30:31;102526.56;;;14.77;55.80
48517;BME280;34310;51.904;4.256;2023-01-26T02:32:58;102514.97;;;14.74;55.71
48517;BME280;34310;51.904;4.256;2023-01-26T02:35:26;102516.69;;;14.73;55.80
48517;BME280;34310;51.904;4.256;2023-01-26T02:37:53;102522.28;;;14.68;55.85
48517;BME280;34310;51.904;4.256;2023-01-26T02:40:41;102529.19;;;14.67;55.97
48517;BME280;34310;51.904;4.256;2023-01-26T02:43:26;102532.19;;;14.62;56.00
48517;BME280;34310;51.904;4.256;2023-01-26T02:45:54;102536.25;;;14.58;56.01
48517;BME280;34310;51.904;4.256;2023-01-26T02:48:22;102538.06;;;14.59;56.02
48517;BME280;34310;51.904;4.256;2023-01-26T02:51:08;102537.41;;;14.62;56.08
48517;BME280;34310;51.904;4.256;2023-01-26T02:53:36;102545.31;;;14.63;56.22
48517;BME280;34310;51.904;4.256;2023-01-26T02:56:03;102542.97;;;14.66;56.38
48517;BME280;34310;51.904;4.256;2023-01-26T02:58:33;102543.22;;;14.69;56.61
48517;BME280;34310;51.904;4.256;2023-01-26T03:01:02;102536.69;;;14.74;56.61
48517;BME280;34310;51.904;4.256;2023-01-26T03:03:29;102532.78;;;14.79;56.53
48517;BME280;34310;51.904;4.256;2023-01-26T03:06:10;102533.94;;;14.83;56.24
48517;BME280;34310;51.904;4.256;2023-01-26T03:08:38;102525.59;;;14.87;56.42
48517;BME280;34310;51.904;4.256;2023-01-26T03:11:07;102531.94;;;14.91;56.28
48517;BME280;34310;51.904;4.256;2023-01-26T03:13:35;102532.19;;;14.94;56.24
48517;BME280;34310;51.904;4.256;2023-01-26T03:16:06;102533.22;;;14.96;56.25
48517;BME280;34310;51.904;4.256;2023-01-26T03:21:30;102529.28;;;15.01;56.20
48517;BME280;34310;51.904;4.256;2023-01-26T03:24:16;102530.97;;;15.00;56.11
48517;BME280;34310;51.904;4.256;2023-01-26T03:27:09;102539.81;;;15.02;56.14
48517;BME280;34310;51.904;4.256;2023-01-26T03:29:56;102530.31;;;15.03;56.19
48517;BME280;34310;51.904;4.256;2023-01-26T03:32:32;102533.06;;;15.04;56.14
48517;BME280;34310;51.904;4.256;2023-01-26T03:34:59;102534.78;;;15.04;56.15
48517;BME280;34310;51.904;4.256;2023-01-26T03:37:35;102527.88;;;15.04;56.08
48517;BME280;34310;51.904;4.256;2023-01-26T03:40:07;102526.19;;;15.05;56.05
48517;BME280;34310;51.904;4.256;2023-01-26T03:43:13;102527.09;;;15.05;56.12
48517;BME280;34310;51.904;4.256;2023-01-26T03:46:19;102519.28;;;15.05;56.04
48517;BME280;34310;51.904;4.256;2023-01-26T03:49:20;102522.66;;;15.04;55.98
48517;BME280;34310;51.904;4.256;2023-01-26T03:52:05;102523.56;;;15.05;56.07
48517;BME280;34310;51.904;4.256;2023-01-26T03:54:52;102524.38;;;15.04;55.91
48517;BME280;34310;51.904;4.256;2023-01-26T03:57:46;102527.72;;;15.03;55.91
48517;BME280;34310;51.904;4.256;2023-01-26T04:00:14;102527.59;;;15.01;55.96
48517;BME280;34310;51.904;4.256;2023-01-26T04:02:41;102529.28;;;15.01;56.05
48517;BME280;34310;51.904;4.256;2023-01-26T04:05:27;102530.06;;;15.00;55.88
48517;BME280;34310;51.904;4.256;2023-01-26T04:08:13;102531.78;;;14.99;55.98
48517;BME280;34310;51.904;4.256;2023-01-26T04:10:47;102529.84;;;14.97;56.11
48517;BME280;34310;51.904;4.256;2023-01-26T04:13:18;102532.44;;;14.97;55.82
48517;BME280;34310;51.904;4.256;2023-01-26T04:16:04;102539.22;;;14.95;55.97
48517;BME280;34310;51.904;4.256;2023-01-26T04:18:51;102535.59;;;14.93;56.02
48517;BME280;34310;51.904;4.256;2023-01-26T04:21:40;102538.06;;;14.91;56.01
48517;BME280;34310;51.904;4.256;2023-01-26T04:24:08;102543.03;;;14.88;55.90
48517;BME280;34310;51.904;4.256;2023-01-26T04:26:43;102542.22;;;14.89;55.89
48517;BME280;34310;51.904;4.256;2023-01-26T04:29:13;102538.47;;;14.85;56.02
48517;BME280;34310;51.904;4.256;2023-01-26T04:31:44;102546.03;;;14.82;55.91
48517;BME280;34310;51.904;4.256;2023-01-26T04:34:14;102543.97;;;14.78;55.81
48517;BME280;34310;51.904;4.256;2023-01-26T04:36:42;102551.00;;;14.79;55.95
48517;BME280;34310;51.904;4.256;2023-01-26T04:39:10;102547.38;;;14.77;55.98
48517;BME280;34310;51.904;4.256;2023-01-26T04:41:37;102540.22;;;14.75;55.86
48517;BME280;34310;51.904;4.256;2023-01-26T04:44:08;102544.13;;;14.70;55.88
48517;BME280;34310;51.904;4.256;2023-01-26T04:46:35;102537.09;;;14.69;55.96
48517;BME280;34310;51.904;4.256;2023-01-26T04:49:03;102536.75;;;14.64;55.93
48517;BME280;34310;51.904;4.256;2023-01-26T04:51:31;102540.38;;;14.66;56.16
48517;BME280;34310;51.904;4.256;2023-01-26T04:53:58;102539.47;;;14.66;56.02
48517;BME280;34310;51.904;4.256;2023-01-26T04:56:30;102540.38;;;14.66;56.16
48517;BME280;34310;51.904;4.256;2023-01-26T04:59:04;102549.19;;;14.68;56.35
48517;BME280;34310;51.904;4.256;2023-01-26T05:01:32;102538.13;;;14.71;56.22
48517;BME280;34310;51.904;4.256;2023-01-26T05:04:01;102538.38;;;14.74;56.42
48517;BME280;34310;51.904;4.256;2023-01-26T05:06:29;102541.38;;;14.78;56.46
48517;BME280;34310;51.904;4.256;2023-01-26T05:08:57;102546.03;;;14.82;56.36
48517;BME280;34310;51.904;4.256;2023-01-26T05:11:25;102542.91;;;14.86;56.41
48517;BME280;34310;51.904;4.256;2023-01-26T05:13:52;102546.53;;;14.88;56.36
48517;BME280;34310;51.904;4.256;2023-01-26T05:16:20;102543.13;;;14.90;56.20
48517;BME280;34310;51.904;4.256;2023-01-26T05:18:48;102544.16;;;14.92;56.14
48517;BME280;34310;51.904;4.256;2023-01-26T05:21:15;102544.41;;;14.95;56.26
48517;BME280;34310;51.904;4.256;2023-01-26T05:23:44;102538.44;;;14.96;56.18
48517;BME280;34310;51.904;4.256;2023-01-26T05:26:11;102541.16;;;14.97;56.12
48517;BME280;34310;51.904;4.256;2023-01-26T05:28:39;102543.88;;;14.99;56.04
48517;BME280;34310;51.904;4.256;2023-01-26T05:31:06;102547.38;;;14.99;56.09
48517;BME280;34310;51.904;4.256;2023-01-26T05:33:34;102548.28;;;15.00;56.10
48517;BME280;34310;51.904;4.256;2023-01-26T05:36:06;102550.88;;;15.00;56.11
48517;BME280;34310;51.904;4.256;2023-01-26T05:38:34;102551.91;;;15.02;56.12
48517;BME280;34310;51.904;4.256;2023-01-26T05:41:01;102556.22;;;15.01;56.03
48517;BME280;34310;51.904;4.256;2023-01-26T05:43:29;102556.22;;;15.01;56.11
48517;BME280;34310;51.904;4.256;2023-01-26T05:46:04;102562.31;;;15.02;56.10
48517;BME280;34310;51.904;4.256;2023-01-26T05:48:31;102557.13;;;15.02;56.05
48517;BME280;34310;51.904;4.256;2023-01-26T05:50:59;102558.81;;;15.01;56.11
48517;BME280;34310;51.904;4.256;2023-01-26T05:53:30;102559.59;;;15.00;56.00
48517;BME280;34310;51.904;4.256;2023-01-26T05:55:58;102560.50;;;15.01;56.01
48517;BME280;34310;51.904;4.256;2023-01-26T05:58:26;102566.63;;;15.01;56.08
48517;BME280;34310;51.904;4.256;2023-01-26T06:00:54;102563.88;;;15.00;55.98
48517;BME280;34310;51.904;4.256;2023-01-26T06:03:21;102565.59;;;14.99;56.04
48517;BME280;34310;51.904;4.256;2023-01-26T06:05:53;102564.56;;;14.97;56.14
48517;BME280;34310;51.904;4.256;2023-01-26T06:08:21;102564.56;;;14.97;55.96
48517;BME280;34310;51.904;4.256;2023-01-26T06:10:48;102561.84;;;14.96;55.93
48517;BME280;34310;51.904;4.256;2023-01-26T06:13:16;102570.41;;;14.95;55.95
48517;BME280;34310;51.904;4.256;2023-01-26T06:15:43;102574.59;;;14.93;55.92
48517;BME280;34310;51.904;4.256;2023-01-26T06:18:11;102577.19;;;14.93;56.05
48517;BME280;34310;51.904;4.256;2023-01-26T06:20:38;102573.56;;;14.91;55.93
48517;BME280;34310;51.904;4.256;2023-01-26T06:23:05;102573.56;;;14.91;55.94
48517;BME280;34310;51.904;4.256;2023-01-26T06:25:39;102579.44;;;14.88;55.97
48517;BME280;34310;51.904;4.256;2023-01-26T06:28:07;102574.09;;;14.86;55.88
48517;BME280;34310;51.904;4.256;2023-01-26T06:30:38;102579.06;;;14.83;56.11
48517;BME280;34310;51.904;4.256;2023-01-26T06:33:10;102585.84;;;14.81;55.92
48517;BME280;34310;51.904;4.256;2023-01-26T06:35:37;102588.31;;;14.80;55.92
48517;BME280;34310;51.904;4.256;2023-01-26T06:38:05;102592.59;;;14.79;55.95
48517;BME280;34310;51.904;4.256;2023-01-26T06:40:34;102586.38;;;14.77;55.90
48517;BME280;34310;51.904;4.256;2023-01-26T06:43:01;102590.38;;;14.74;56.03
48517;BME280;34310;51.904;4.256;2023-01-26T06:45:29;102591.28;;;14.74;55.99
48517;BME280;34310;51.904;4.256;2023-01-26T06:47:56;102597.28;;;14.73;56.20
48517;BME280;34310;51.904;4.256;2023-01-26T06:50:26;102605.06;;;14.73;56.24
48517;BME280;34310;51.904;4.256;2023-01-26T06:52:59;102603.38;;;14.74;56.22
48517;BME280;34310;51.904;4.256;2023-01-26T06:55:35;102605.34;;;14.76;56.32
48517;BME280;34310;51.904;4.256;2023-01-26T06:58:03;102610.81;;;14.79;56.40
48517;BME280;34310;51.904;4.256;2023-01-26T07:00:31;102617.16;;;14.83;56.44
48517;BME280;34310;51.904;4.256;2023-01-26T07:02:58;102612.09;;;14.84;56.42
48517;BME280;34310;51.904;4.256;2023-01-26T07:05:26;102608.94;;;14.88;56.30
48517;BME280;34310;51.904;4.256;2023-01-26T07:07:53;102622.06;;;14.90;56.26
48517;BME280;34310;51.904;4.256;2023-01-26T07:10:21;102617.00;;;14.92;56.37
48517;BME280;34310;51.904;4.256;2023-01-26T07:12:48;102616.22;;;14.93;56.25
48517;BME280;34310;51.904;4.256;2023-01-26T07:15:16;102618.94;;;14.94;56.19
48517;BME280;34310;51.904;4.256;2023-01-26T07:17:43;102621.66;;;14.96;56.29
48517;BME280;34310;51.904;4.256;2023-01-26T07:20:11;102625.03;;;14.95;56.16
48517;BME280;34310;51.904;4.256;2023-01-26T07:22:39;102622.31;;;14.93;56.04
48517;BME280;34310;51.904;4.256;2023-01-26T07:25:06;102621.16;;;14.90;56.02
48517;BME280;34310;51.904;4.256;2023-01-26T07:27:34;102632.34;;;14.88;56.02
48517;BME280;34310;51.904;4.256;2023-01-26T07:30:02;102642.50;;;14.85;56.10
48517;BME280;34310;51.904;4.256;2023-01-26T07:32:31;102642.25;;;14.82;55.97
48517;BME280;34310;51.904;4.256;2023-01-26T07:34:58;102646.44;;;14.80;56.10
48517;BME280;34310;51.904;4.256;2023-01-26T07:37:29;102641.88;;;14.78;55.96
48517;BME280;34310;51.904;4.256;2023-01-26T07:39:56;102658.16;;;14.75;56.06
48517;BME280;34310;51.904;4.256;2023-01-26T07:42:24;102656.16;;;14.73;56.14
48517;BME280;34310;51.904;4.256;2023-01-26T07:44:51;102663.84;;;14.71;56.08
48517;BME280;34310;51.904;4.256;2023-01-26T07:47:18;102657.59;;;14.69;56.14
48517;BME280;34310;51.904;4.256;2023-01-26T07:49:46;102664.38;;;14.67;56.21
48517;BME280;34310;51.904;4.256;2023-01-26T07:52:13;102666.84;;;14.66;56.23
48517;BME280;34310;51.904;4.256;2023-01-26T07:54:41;102677.13;;;14.64;56.27
48517;BME280;34310;51.904;4.256;2023-01-26T07:57:08;102679.59;;;14.63;56.29
48517;BME280;34310;51.904;4.256;2023-01-26T07:59:35;102676.09;;;14.62;56.25
48517;BME280;34310;51.904;4.256;2023-01-26T08:02:03;102680.38;;;14.62;56.31
48517;BME280;34310;51.904;4.256;2023-01-26T08:04:30;102676.09;;;14.62;56.36
48517;BME280;34310;51.904;4.256;2023-01-26T08:06:58;102681.28;;;14.62;56.44
48517;BME280;34310;51.904;4.256;2023-01-26T08:09:25;102687.38;;;14.63;56.38
48517;BME280;34310;51.904;4.256;2023-01-26T08:11:56;102683.88;;;14.62;56.38
48517;BME280;34310;51.904;4.256;2023-01-26T08:14:24;102683.88;;;14.62;56.53
48517;BME280;34310;51.904;4.256;2023-01-26T08:16:54;102682.06;;;14.61;56.40
48517;BME280;34310;51.904;4.256;2023-01-26T08:19:21;102679.59;;;14.63;56.58
48517;BME280;34310;51.904;4.256;2023-01-26T08:21:48;102684.00;;;14.64;56.53
48517;BME280;34310;51.904;4.256;2023-01-26T08:24:16;102695.31;;;14.64;56.59
48517;BME280;34310;51.904;4.256;2023-01-26T08:26:43;102687.50;;;14.64;56.58
48517;BME280;34310;51.904;4.256;2023-01-26T08:29:11;102694.53;;;14.65;56.56
48517;BME280;34310;51.904;4.256;2023-01-26T08:31:38;102691.03;;;14.65;56.50
48517;BME280;34310;51.904;4.256;2023-01-26T08:34:06;102692.72;;;14.64;56.81
48517;BME280;34310;51.904;4.256;2023-01-26T08:36:33;102697.13;;;14.65;56.52
48517;BME280;34310;51.904;4.256;2023-01-26T08:39:00;102691.94;;;14.65;56.62
48517;BME280;34310;51.904;4.256;2023-01-26T08:41:28;102699.72;;;14.65;56.74
48517;BME280;34310;51.904;4.256;2023-01-26T08:43:57;102697.00;;;14.64;56.70
48517;BME280;34310;51.904;4.256;2023-01-26T08:46:26;102700.38;;;14.63;56.66
48517;BME280;34310;51.904;4.256;2023-01-26T08:48:53;102704.69;;;14.62;56.72
48517;BME280;34310;51.904;4.256;2023-01-26T08:51:20;102704.69;;;14.62;56.79
48517;BME280;34310;51.904;4.256;2023-01-26T08:53:48;102703.78;;;14.62;56.70
48517;BME280;34310;51.904;4.256;2023-01-26T08:56:15;102704.56;;;14.61;56.70
48517;BME280;34310;51.904;4.256;2023-01-26T08:58:43;102699.22;;;14.59;56.73
48517;BME280;34310;51.904;4.256;2023-01-26T09:01:12;102710.53;;;14.60;56.73
48517;BME280;34310;51.904;4.256;2023-01-26T09:03:40;102695.59;;;14.57;56.76
48517;BME280;34310;51.904;4.256;2023-01-26T09:06:09;102710.28;;;14.56;56.88
48517;BME280;34310;51.904;4.256;2023-01-26T09:08:37;102711.06;;;14.55;56.79
48517;BME280;34310;51.904;4.256;2023-01-26T09:11:07;102715.34;;;14.55;56.85
48517;BME280;34310;51.904;4.256;2023-01-26T09:13:35;102721.47;;;14.55;56.87
48517;BME280;34310;51.904;4.256;2023-01-26T09:16:11;102723.28;;;14.56;56.91
48517;BME280;34310;51.904;4.256;2023-01-26T09:18:39;102727.69;;;14.57;56.82
48517;BME280;34310;51.904;4.256;2023-01-26T09:21:07;102724.31;;;14.59;56.85
48517;BME280;34310;51.904;4.256;2023-01-26T09:23:35;102733.94;;;14.60;56.88
48517;BME280;34310;51.904;4.256;2023-01-26T09:26:04;102734.06;;;14.61;56.98
48517;BME280;34310;51.904;4.256;2023-01-26T09:28:31;102737.56;;;14.62;56.89
48517;BME280;34310;51.904;4.256;2023-01-26T09:31:06;102738.47;;;14.62;56.89
48517;BME280;34310;51.904;4.256;2023-01-26T09:33:35;102742.09;;;14.64;56.84
48517;BME280;34310;51.904;4.256;2023-01-26T09:36:08;102739.38;;;14.63;56.97
48517;BME280;34310;51.904;4.256;2023-01-26T09:38:36;102731.72;;;14.64;56.91
48517;BME280;34310;51.904;4.256;2023-01-26T09:41:16;102729.88;;;14.63;57.09
48517;BME280;34310;51.904;4.256;2023-01-26T09:43:49;102737.69;;;14.63;56.91
48517;BME280;34310;51.904;4.256;2023-01-26T09:46:35;102729.75;;;14.62;57.05
48517;BME280;34310;51.904;4.256;2023-01-26T09:49:09;102736.78;;;14.63;56.86
48517;BME280;34310;51.904;4.256;2023-01-26T09:54:39;102728.19;;;14.64;57.02
48517;BME280;34310;51.904;4.256;2023-01-26T09:57:17;102726.63;;;14.66;56.88
48517;BME280;34310;51.904;4.256;2023-01-26T09:59:53;102739.75;;;14.67;56.92
48517;BME280;34310;51.904;4.256;2023-01-26T10:02:48;102744.19;;;14.68;57.08
48517;BME280;34310;51.904;4.256;2023-01-26T10:05:32;102738.97;;;14.68;56.82
48517;BME280;34310;51.904;4.256;2023-01-26T10:08:04;102739.91;;;14.69;56.96
48517;BME280;34310;51.904;4.256;2023-01-26T10:10:36;102738.97;;;14.68;56.99
48517;BME280;34310;51.904;4.256;2023-01-26T10:13:05;102742.50;;;14.69;56.97
48517;BME280;34310;51.904;4.256;2023-01-26T10:15:41;102740.81;;;14.69;56.87
48517;BME280;34310;51.904;4.256;2023-01-26T10:21:26;102747.81;;;14.70;56.94
48517;BME280;34310;51.904;4.256;2023-01-26T10:23:55;102742.75;;;14.72;56.91
48517;BME280;34310;51.904;4.256;2023-01-26T10:26:30;102741.84;;;14.71;56.92
48517;BME280;34310;51.904;4.256;2023-01-26T10:28:58;102743.66;;;14.72;56.93
48517;BME280;34310;51.904;4.256;2023-01-26T10:31:28;102755.88;;;14.73;56.93
48517;BME280;34310;51.904;4.256;2023-01-26T10:36:24;102755.25;;;14.76;56.87
48517;BME280;34310;51.904;4.256;2023-01-26T10:38:52;102750.84;;;14.75;56.95
48517;BME280;34310;51.904;4.256;2023-01-26T10:41:26;102749.28;;;14.77;56.83
48517;BME280;34310;51.904;4.256;2023-01-26T10:46:25;102759.81;;;14.78;56.88
48517;BME280;34310;51.904;4.256;2023-01-26T10:49:17;102757.19;;;14.78;56.88
48517;BME280;34310;51.904;4.256;2023-01-26T10:52:10;102766.03;;;14.80;56.80
48517;BME280;34310;51.904;4.256;2023-01-26T10:54:41;102762.66;;;14.81;56.88
48517;BME280;34310;51.904;4.256;2023-01-26T10:59:59;102752.50;;;14.84;56.71
48517;BME280;34310;51.904;4.256;2023-01-26T11:02:35;102749.91;;;14.84;56.77
48517;BME280;34310;51.904;4.256;2023-01-26T11:07:42;102748.34;;;14.86;56.72
48517;BME280;34310;51.904;4.256;2023-01-26T11:10:32;102745.88;;;14.88;56.65
48517;BME280;34310;51.904;4.256;2023-01-26T11:13:12;102751.06;;;14.88;56.73
48517;BME280;34310;51.904;4.256;2023-01-26T11:15:41;102744.19;;;14.88;56.52
48517;BME280;34310;51.904;4.256;2023-01-26T11:21:00;102741.31;;;14.85;56.61
48517;BME280;34310;51.904;4.256;2023-01-26T11:23:57;102739.63;;;14.86;56.55
48517;BME280;34310;51.904;4.256;2023-01-26T11:26:54;102742.88;;;14.83;56.73
48517;BME280;34310;51.904;4.256;2023-01-26T11:37:38;102751.75;;;14.75;56.88
48517;BME280;34310;51.904;4.256;2023-01-26T11:43:08;102745.75;;;14.76;56.88
48517;BME280;34310;51.904;4.256;2023-01-26T11:59:14;102740.56;;;14.76;56.82
48517;BME280;34310;51.904;4.256;2023-01-26T12:02:34;102738.75;;;14.75;56.95
48517;BME280;34310;51.904;4.256;2023-01-26T12:04:37;102735.38;;;14.76;56.91
48517;BME280;34310;51.904;4.256;2023-01-26T12:09:48;102731.97;;;14.77;56.81
48517;BME280;34310;51.904;4.256;2023-01-26T12:20:48;102713.50;;;14.74;56.91
48517;BME280;34310;51.904;4.256;2023-01-26T12:26:17;102709.22;;;14.75;57.08
48517;BME280;34310;51.904;4.256;2023-01-26T12:32:20;102704.03;;;14.75;57.01
48517;BME280;34310;51.904;4.256;2023-01-26T12:34:31;102703.38;;;14.77;56.95
48517;BME280;34310;51.904;4.256;2023-01-26T12:37:19;102691.28;;;14.78;57.18
48517;BME280;34310;51.904;4.256;2023-01-26T12:42:46;102694.91;;;14.80;57.06
48517;BME280;34310;51.904;4.256;2023-01-26T12:45:19;102688.03;;;14.80;57.17
48517;BME280;34310;51.904;4.256;2023-01-26T12:47:55;102694.25;;;14.82;57.18
48517;BME280;34310;51.904;4.256;2023-01-26T12:50:31;102683.19;;;14.85;57.15
48517;BME280;34310;51.904;4.256;2023-01-26T12:55:49;102670.69;;;14.91;57.05
48517;BME280;34310;51.904;4.256;2023-01-26T12:58:30;102673.53;;;14.94;57.05
48517;BME280;34310;51.904;4.256;2023-01-26T13:01:35;102673.66;;;14.96;57.02
48517;BME280;34310;51.904;4.256;2023-01-26T13:04:00;102668.72;;;14.99;56.99
48517;BME280;34310;51.904;4.256;2023-01-26T13:06:30;102670.53;;;15.00;57.04
48517;BME280;34310;51.904;4.256;2023-01-26T13:09:02;102670.41;;;14.98;57.01
48517;BME280;34310;51.904;4.256;2023-01-26T13:14:26;102678.22;;;14.98;57.04
48517;BME280;34310;51.904;4.256;2023-01-26T13:16:54;102675.75;;;15.00;56.95
48517;BME280;34310;51.904;4.256;2023-01-26T13:24:55;102681.47;;;14.96;56.97
48517;BME280;34310;51.904;4.256;2023-01-26T13:27:44;102677.06;;;14.95;57.05
48517;BME280;34310;51.904;4.256;2023-01-26T13:35:19;102681.09;;;14.91;57.00
48517;BME280;34310;51.904;4.256;2023-01-26T13:37:59;102689.81;;;14.92;57.03
48517;BME280;34310;51.904;4.256;2023-01-26T13:40:39;102688.91;;;14.91;57.00
48517;BME280;34310;51.904;4.256;2023-01-26T13:46:14;102679.28;;;14.90;57.12
48517;BME280;34310;51.904;4.256;2023-01-26T13:48:52;102678.38;;;14.90;57.09
48517;BME280;34310;51.904;4.256;2023-01-26T13:51:25;102681.75;;;14.88;56.99
48517;BME280;34310;51.904;4.256;2023-01-26T13:54:11;102672.13;;;14.87;57.00
48517;BME280;34310;51.904;4.256;2023-01-26T13:56:41;102670.31;;;14.86;57.12
48517;BME280;34310;51.904;4.256;2023-01-26T13:59:12;102678.91;;;14.85;57.12
48517;BME280;34310;51.904;4.256;2023-01-26T14:01:58;102677.88;;;14.83;57.18
48517;BME280;34310;51.904;4.256;2023-01-26T14:04:30;102667.34;;;14.82;57.12
48517;BME280;34310;51.904;4.256;2023-01-26T14:07:46;102674.25;;;14.81;57.08
48517;BME280;34310;51.904;4.256;2023-01-26T14:09:50;102673.22;;;14.79;57.17
48517;BME280;34310;51.904;4.256;2023-01-26T14:12:24;102678.41;;;14.79;57.22
48517;BME280;34310;51.904;4.256;2023-01-26T14:14:59;102675.69;;;14.78;57.20
48517;BME280;34310;51.904;4.256;2023-01-26T14:17:30;102670.47;;;14.78;57.17
48517;BME280;34310;51.904;4.256;2023-01-26T14:19:58;102672.97;;;14.76;57.20
48517;BME280;34310;51.904;4.256;2023-01-26T14:22:27;102676.34;;;14.75;57.17
48517;BME280;34310;51.904;4.256;2023-01-26T14:24:54;102667.63;;;14.75;57.28
48517;BME280;34310;51.904;4.256;2023-01-26T14:27:41;102667.47;;;14.73;57.32
48517;BME280;34310;51.904;4.256;2023-01-26T14:30:30;102667.34;;;14.72;57.36
48517;BME280;34310;51.904;4.256;2023-01-26T14:35:39;102667.22;;;14.70;57.30
48517;BME280;34310;51.904;4.256;2023-01-26T14:38:16;102674.25;;;14.71;57.30
48517;BME280;34310;51.904;4.256;2023-01-26T14:40:52;102676.06;;;14.72;57.23
48517;BME280;34310;51.904;4.256;2023-01-26T14:43:20;102670.97;;;14.74;57.15
48517;BME280;34310;51.904;4.256;2023-01-26T14:46:06;102676.19;;;14.74;57.35
48517;BME280;34310;51.904;4.256;2023-01-26T14:48:39;102676.34;;;14.75;57.25
48517;BME280;34310;51.904;4.256;2023-01-26T14:51:21;102682.56;;;14.77;57.27
48517;BME280;34310;51.904;4.256;2023-01-26T14:54:02;102687.00;;;14.78;57.29
48517;BME280;34310;51.904;4.256;2023-01-26T14:56:40;102685.44;;;14.80;57.28